Time;durP1;ratioP1;P1;durP2;ratioP2;P2;SDS_P1;SDS_P2;PMS_P1;PMS_P2;Temp;Humidity;BMP_temperature;BMP_pressure;BME280_temperature;BME280_humidity;BME280_pressure;Samples;Min_cycle;Max_cycle;Signal;HPM_P1;HPM_P2
2023/05/22 00:01:05;;;;;;;10.90;8.23;;;21.80;41.00;;;;;;4994307;28;20194;-55
2023/05/22 00:03:32;;;;;;;8.83;8.03;;;21.80;40.90;;;;;;4994793;28;20537;-51
2023/05/22 00:05:59;;;;;;;12.77;8.00;;;21.80;40.80;;;;;;4994460;28;20458;-52
2023/05/22 00:08:26;;;;;;;8.13;7.43;;;21.80;40.90;;;;;;4994404;28;20429;-55
2023/05/22 00:10:52;;;;;;;10.30;9.40;;;21.80;40.80;;;;;;4994176;28;20450;-52
2023/05/22 00:13:18;;;;;;;9.50;8.60;;;21.80;40.70;;;;;;4994372;28;20406;-55
2023/05/22 00:15:44;;;;;;;10.97;9.30;;;21.80;40.50;;;;;;4994134;28;20430;-54
2023/05/22 00:18:12;;;;;;;9.37;8.47;;;21.80;40.40;;;;;;4994488;28;20183;-52
2023/05/22 00:20:39;;;;;;;8.97;8.17;;;21.70;40.80;;;;;;4993962;28;20200;-52
2023/05/22 00:23:08;;;;;;;9.63;8.63;;;21.70;40.90;;;;;;4994127;28;20449;-54
2023/05/22 00:25:36;;;;;;;8.20;7.47;;;21.60;41.10;;;;;;4994079;28;20437;-54
2023/05/22 00:28:02;;;;;;;9.10;7.77;;;21.50;41.50;;;;;;4994176;28;20414;-53
2023/05/22 00:30:27;;;;;;;9.50;8.03;;;21.40;41.50;;;;;;4993777;28;20450;-54
2023/05/22 00:32:53;;;;;;;10.03;9.03;;;21.40;41.50;;;;;;4993990;28;20549;-55
2023/05/22 00:35:19;;;;;;;9.53;8.53;;;21.40;41.60;;;;;;4994041;28;20198;-52
2023/05/22 00:37:45;;;;;;;10.50;9.50;;;21.40;41.80;;;;;;4994136;28;20719;-53
2023/05/22 00:40:12;;;;;;;9.90;7.90;;;21.40;42.00;;;;;;4993683;28;20310;-53
2023/05/22 00:42:38;;;;;;;9.87;8.87;;;21.30;42.00;;;;;;4993847;28;20418;-52
2023/05/22 00:45:05;;;;;;;10.40;9.30;;;21.30;42.00;;;;;;4993599;28;20435;-54
2023/05/22 00:47:31;;;;;;;9.77;8.87;;;21.20;41.90;;;;;;4993694;28;20187;-55
2023/05/22 00:49:58;;;;;;;10.57;8.87;;;21.20;42.00;;;;;;4993635;28;20458;-53
2023/05/22 00:52:24;;;;;;;9.70;8.80;;;21.20;41.90;;;;;;4993628;28;20633;-53
2023/05/22 00:54:52;;;;;;;9.40;8.27;;;21.20;41.90;;;;;;4993595;28;20478;-56
2023/05/22 00:57:19;;;;;;;9.70;8.88;;;21.20;42.00;;;;;;4993470;28;20267;-54
2023/05/22 00:59:45;;;;;;;14.85;8.65;;;21.10;42.20;;;;;;4993283;28;20824;-53
2023/05/22 01:02:15;;;;;;;14.40;8.40;;;21.10;42.20;;;;;;4993653;28;20230;-56
2023/05/22 01:04:47;;;;;;;9.85;9.05;;;21.00;42.30;;;;;;4993412;28;20513;-54
2023/05/22 01:07:15;;;;;;;9.87;8.90;;;20.90;42.60;;;;;;4993423;28;20209;-53
2023/05/22 01:09:41;;;;;;;9.10;8.20;;;20.90;42.40;;;;;;4993089;28;20411;-56
2023/05/22 01:12:19;;;;;;;9.20;8.30;;;20.90;42.30;;;;;;4993497;28;20486;-54
2023/05/22 01:14:54;;;;;;;8.82;7.93;;;20.90;42.40;;;;;;4993182;28;21005;-56
2023/05/22 01:17:33;;;;;;;10.10;9.10;;;20.90;42.40;;;;;;4993274;28;20250;-55
2023/05/22 01:20:20;;;;;;;8.95;7.90;;;20.80;42.10;;;;;;4993004;28;20406;-53
2023/05/22 01:23:23;;;;;;;8.57;7.83;;;20.80;42.30;;;;;;4993149;28;20159;-53
2023/05/22 01:26:27;;;;;;;10.57;9.57;;;20.80;42.40;;;;;;4992918;28;20430;-53
2023/05/22 01:29:29;;;;;;;9.63;8.38;;;20.70;42.40;;;;;;4913789;29;20418;-56
2023/05/22 01:31:59;;;;;;;9.60;8.47;;;20.60;42.40;;;;;;4913926;29;20205;-53
2023/05/22 01:34:26;;;;;;;10.70;8.90;;;20.50;42.70;;;;;;4913261;29;20574;-54
2023/05/22 01:36:53;;;;;;;10.67;8.80;;;20.40;43.00;;;;;;4913772;29;20174;-54
2023/05/22 01:39:20;;;;;;;10.75;9.65;;;20.30;43.20;;;;;;4913422;29;20420;-53
2023/05/22 01:41:46;;;;;;;11.05;10.05;;;20.30;44.20;;;;;;4913782;29;20209;-54
2023/05/22 01:44:11;;;;;;;10.10;9.03;;;20.20;43.60;;;;;;4913705;29;20593;-54
2023/05/22 01:46:37;;;;;;;10.20;9.20;;;20.20;43.60;;;;;;4913561;29;20442;-52
2023/05/22 01:49:03;;;;;;;9.13;8.37;;;20.20;43.60;;;;;;4913540;29;20237;-56
2023/05/22 01:51:47;;;;;;;9.73;8.90;;;20.30;43.40;;;;;;4913331;29;20248;-56
2023/05/22 01:54:30;;;;;;;10.23;9.32;;;20.30;43.20;;;;;;4913605;29;20221;-54
2023/05/22 01:57:09;;;;;;;9.85;8.90;;;20.30;43.20;;;;;;4913665;29;20205;-51
2023/05/22 02:00:03;;;;;;;11.82;7.93;;;20.30;43.10;;;;;;4945024;28;20175;-52
2023/05/22 02:02:30;;;;;;;10.05;8.93;;;20.20;43.10;;;;;;4992623;28;20179;-54
2023/05/22 02:04:59;;;;;;;10.13;9.27;;;20.20;43.10;;;;;;4992279;28;20685;-55
2023/05/22 02:07:26;;;;;;;10.90;9.90;;;20.20;43.30;;;;;;4992618;28;20179;-53
2023/05/22 02:09:54;;;;;;;10.05;9.05;;;20.20;43.10;;;;;;4992285;28;20167;-53
2023/05/22 02:12:22;;;;;;;10.25;8.45;;;20.20;43.00;;;;;;4992370;28;20183;-54
2023/05/22 02:14:48;;;;;;;9.57;8.68;;;20.20;43.10;;;;;;4992599;28;20195;-55
2023/05/22 02:17:16;;;;;;;11.13;9.45;;;20.10;43.30;;;;;;4992459;28;20171;-54
2023/05/22 02:19:43;;;;;;;11.13;8.43;;;20.10;43.10;;;;;;4992238;28;20164;-55
2023/05/22 02:22:12;;;;;;;12.05;9.40;;;20.10;43.20;;;;;;4992727;28;20229;-54
2023/05/22 02:24:41;;;;;;;10.98;9.98;;;20.10;43.20;;;;;;4992768;28;20195;-54
2023/05/22 02:27:08;;;;;;;13.07;9.77;;;20.10;43.10;;;;;;4992291;28;20270;-54
2023/05/22 02:29:34;;;;;;;11.27;8.50;;;20.10;43.30;;;;;;4992445;28;20179;-55
2023/05/22 02:32:00;;;;;;;9.53;8.33;;;20.00;43.40;;;;;;4992557;28;20214;-54
2023/05/22 02:34:25;;;;;;;11.83;9.10;;;20.00;43.20;;;;;;4992474;28;20453;-54
2023/05/22 02:36:51;;;;;;;10.23;9.17;;;20.00;42.90;;;;;;4992250;28;20488;-54
2023/05/22 02:39:18;;;;;;;13.00;10.60;;;20.00;43.00;;;;;;4992138;28;20168;-54
2023/05/22 02:41:44;;;;;;;9.25;8.25;;;20.00;43.10;;;;;;4992486;28;20414;-54
2023/05/22 02:44:10;;;;;;;10.03;8.80;;;20.00;43.10;;;;;;4992326;28;20176;-54
2023/05/22 02:46:35;;;;;;;9.03;8.23;;;20.00;43.10;;;;;;4995702;28;20438;-54
2023/05/22 02:49:01;;;;;;;12.30;8.97;;;20.00;43.30;;;;;;4996005;28;20768;-53
2023/05/22 02:51:27;;;;;;;10.00;8.97;;;19.90;43.20;;;;;;4995725;28;20203;-53
2023/05/22 02:53:52;;;;;;;10.33;9.43;;;19.90;43.20;;;;;;4996014;28;20549;-55
2023/05/22 02:56:19;;;;;;;11.00;10.03;;;19.90;43.30;;;;;;4995785;28;20277;-54
2023/05/22 02:58:45;;;;;;;11.05;10.00;;;19.90;43.50;;;;;;4995658;28;20596;-53
2023/05/22 03:01:11;;;;;;;10.50;9.43;;;19.90;43.50;;;;;;4995586;28;20199;-53
2023/05/22 03:03:37;;;;;;;13.37;10.17;;;19.90;43.60;;;;;;4995686;28;20892;-53
2023/05/22 03:06:03;;;;;;;11.30;9.87;;;19.90;43.60;;;;;;4995584;28;20341;-56
2023/05/22 03:08:30;;;;;;;10.73;9.57;;;19.90;43.60;;;;;;4995835;28;20414;-53
2023/05/22 03:10:57;;;;;;;11.55;10.38;;;19.90;43.50;;;;;;4995183;28;20222;-53
2023/05/22 03:13:23;;;;;;;10.95;9.82;;;19.80;43.60;;;;;;4995653;28;20179;-55
2023/05/22 03:15:50;;;;;;;9.75;8.73;;;19.80;43.40;;;;;;4995400;28;20198;-55
2023/05/22 03:18:16;;;;;;;11.15;9.02;;;19.80;43.50;;;;;;4995350;28;20172;-53
2023/05/22 03:20:42;;;;;;;10.30;8.65;;;19.80;43.60;;;;;;4995236;28;20183;-55
2023/05/22 03:23:07;;;;;;;9.87;8.97;;;19.80;43.80;;;;;;4995625;28;20183;-55
2023/05/22 03:25:33;;;;;;;11.23;10.00;;;19.70;43.80;;;;;;4995209;28;20199;-55
2023/05/22 03:27:59;;;;;;;9.00;8.20;;;19.70;44.00;;;;;;4995522;28;20205;-54
2023/05/22 03:30:25;;;;;;;10.45;8.65;;;19.70;43.90;;;;;;4994982;28;20218;-55
2023/05/22 03:32:51;;;;;;;10.67;8.87;;;19.70;44.00;;;;;;4995156;28;20222;-54
2023/05/22 03:35:18;;;;;;;9.90;8.85;;;19.70;44.20;;;;;;4995147;28;20203;-56
2023/05/22 03:37:45;;;;;;;11.02;9.90;;;19.70;44.20;;;;;;4995000;28;20182;-53
2023/05/22 03:40:11;;;;;;;14.85;9.55;;;19.70;44.20;;;;;;4994802;28;20183;-53
2023/05/22 03:42:37;;;;;;;27.98;9.93;;;19.70;44.20;;;;;;4977532;28;20218;-56
2023/05/22 03:45:03;;;;;;;12.07;10.87;;;19.70;44.20;;;;;;4994905;28;20222;-53
2023/05/22 03:47:29;;;;;;;10.45;9.45;;;19.80;44.40;;;;;;4994950;28;20407;-55
2023/05/22 03:49:55;;;;;;;14.53;11.30;;;19.80;44.30;;;;;;4994651;28;20225;-55
2023/05/22 03:52:21;;;;;;;11.87;10.77;;;19.80;44.50;;;;;;4994826;28;20660;-53
2023/05/22 03:54:47;;;;;;;11.35;10.25;;;19.90;44.60;;;;;;4994574;28;20287;-55
2023/05/22 03:57:13;;;;;;;11.37;10.17;;;19.90;44.70;;;;;;4994606;28;20250;-53
2023/05/22 03:59:39;;;;;;;10.45;9.50;;;19.90;44.80;;;;;;4994579;28;20573;-53
2023/05/22 04:02:05;;;;;;;14.43;11.50;;;20.00;44.70;;;;;;4994776;28;20187;-55
2023/05/22 04:04:32;;;;;;;12.13;10.70;;;20.00;44.90;;;;;;4994385;28;20435;-55
2023/05/22 04:06:58;;;;;;;11.52;10.32;;;20.10;45.20;;;;;;4994749;28;20409;-53
2023/05/22 04:09:31;;;;;;;13.80;11.23;;;20.10;45.20;;;;;;4994275;28;20183;-56
2023/05/22 04:11:57;;;;;;;11.18;10.00;;;20.20;44.90;;;;;;4994669;28;20461;-55
2023/05/22 04:14:23;;;;;;;11.82;10.63;;;20.20;45.10;;;;;;4994522;28;20184;-55
2023/05/22 04:16:48;;;;;;;13.90;11.80;;;20.30;45.00;;;;;;4994490;28;20178;-54
2023/05/22 04:19:15;;;;;;;11.13;10.00;;;20.40;45.00;;;;;;4976687;28;20171;-55
2023/05/22 04:21:41;;;;;;;12.55;11.35;;;20.50;45.20;;;;;;4994498;28;20198;-55
2023/05/22 04:24:07;;;;;;;15.30;12.50;;;20.60;45.30;;;;;;4994307;28;20176;-55
2023/05/22 04:26:32;;;;;;;13.00;10.33;;;20.60;45.20;;;;;;4994072;28;20470;-57
2023/05/22 04:28:59;;;;;;;13.00;11.60;;;20.80;45.30;;;;;;4994292;28;20457;-54
2023/05/22 04:31:24;;;;;;;13.63;12.23;;;20.80;45.30;;;;;;4993909;28;20454;-57
2023/05/22 04:33:50;;;;;;;14.20;11.73;;;20.90;45.10;;;;;;4994104;28;20178;-56
2023/05/22 04:36:21;;;;;;;13.27;11.83;;;21.00;45.00;;;;;;4993826;28;20257;-53
2023/05/22 04:38:47;;;;;;;13.48;12.13;;;21.00;44.50;;;;;;4993951;28;20160;-56
2023/05/22 04:41:16;;;;;;;16.05;11.80;;;21.10;44.30;;;;;;4993931;28;20183;-56
2023/05/22 04:43:47;;;;;;;12.63;11.33;;;21.20;44.10;;;;;;4993785;28;20321;-53
2023/05/22 04:46:14;;;;;;;10.95;10.00;;;21.30;44.00;;;;;;4993868;28;20450;-56
2023/05/22 04:48:40;;;;;;;12.00;10.90;;;21.40;44.00;;;;;;4993661;28;20237;-57
2023/05/22 04:51:06;;;;;;;13.70;12.43;;;21.40;43.40;;;;;;4993843;28;20203;-54
2023/05/22 04:53:32;;;;;;;12.63;11.43;;;21.50;43.30;;;;;;4993982;28;20178;-54
2023/05/22 04:55:58;;;;;;;11.45;9.65;;;21.60;43.30;;;;;;4993608;28;20203;-56
2023/05/22 04:58:27;;;;;;;11.43;10.23;;;21.60;43.50;;;;;;4993644;28;20190;-53
2023/05/22 05:00:53;;;;;;;14.50;11.83;;;21.70;43.50;;;;;;4993589;28;20414;-53
2023/05/22 05:03:19;;;;;;;13.20;11.83;;;21.80;43.20;;;;;;4993664;28;20419;-56
2023/05/22 05:05:46;;;;;;;12.50;11.30;;;21.80;43.00;;;;;;4993416;28;20525;-53
2023/05/22 05:08:12;;;;;;;12.53;11.20;;;22.00;42.90;;;;;;4992731;28;20415;-52
2023/05/22 05:10:38;;;;;;;12.40;10.07;;;22.00;42.60;;;;;;4993028;28;20462;-55
2023/05/22 05:13:03;;;;;;;10.20;9.20;;;22.00;42.40;;;;;;4993561;28;20406;-55
2023/05/22 05:15:30;;;;;;;12.67;11.07;;;22.20;42.60;;;;;;4993129;28;20187;-53
2023/05/22 05:17:56;;;;;;;12.47;11.20;;;22.20;42.40;;;;;;4993176;28;20258;-53
2023/05/22 05:20:21;;;;;;;13.23;10.30;;;22.20;41.90;;;;;;4993039;28;20477;-53
2023/05/22 05:22:47;;;;;;;12.53;10.40;;;22.20;41.50;;;;;;4993158;28;20666;-52
2023/05/22 05:25:13;;;;;;;13.07;11.60;;;22.20;41.70;;;;;;4993124;28;20198;-55
2023/05/22 05:27:39;;;;;;;13.10;11.80;;;22.30;41.60;;;;;;4993083;28;20175;-53
2023/05/22 05:30:05;;;;;;;11.87;10.20;;;22.30;41.50;;;;;;4992698;28;20565;-53
2023/05/22 05:32:31;;;;;;;13.37;10.80;;;22.40;41.00;;;;;;4992901;28;20505;-56
2023/05/22 05:34:57;;;;;;;11.83;10.70;;;22.40;41.00;;;;;;4992948;28;20561;-52
2023/05/22 05:37:22;;;;;;;11.40;10.37;;;22.50;41.00;;;;;;4992951;28;20222;-55
2023/05/22 05:39:48;;;;;;;12.33;11.03;;;22.50;41.00;;;;;;4992532;28;20174;-55
2023/05/22 05:42:16;;;;;;;11.53;10.43;;;22.60;40.90;;;;;;4992896;28;20438;-53
2023/05/22 05:44:41;;;;;;;11.70;10.07;;;22.60;40.70;;;;;;4992722;28;20458;-54
2023/05/22 05:47:07;;;;;;;12.17;10.17;;;22.60;40.70;;;;;;4992617;28;20998;-52
2023/05/22 05:49:33;;;;;;;13.67;10.37;;;22.60;40.80;;;;;;4992686;28;20258;-55
2023/05/22 05:51:59;;;;;;;11.10;9.90;;;22.70;41.10;;;;;;4992596;28;20203;-55
2023/05/22 05:54:27;;;;;;;12.37;11.17;;;22.70;40.60;;;;;;4975165;28;20171;-53
2023/05/22 05:56:53;;;;;;;14.70;10.93;;;22.70;40.70;;;;;;4992646;28;20728;-56
2023/05/22 05:59:19;;;;;;;11.60;10.50;;;22.80;40.80;;;;;;4992304;28;20415;-57
2023/05/22 06:01:46;;;;;;;10.50;9.40;;;22.90;41.20;;;;;;4992445;28;20414;-54
2023/05/22 06:04:12;;;;;;;13.10;11.70;;;23.00;41.30;;;;;;4992724;28;20406;-54
2023/05/22 06:06:38;;;;;;;14.03;11.40;;;23.10;41.30;;;;;;4992678;28;20774;-54
2023/05/22 06:09:05;;;;;;;11.77;10.70;;;23.20;41.30;;;;;;4992422;28;20934;-53
2023/05/22 06:11:31;;;;;;;11.80;10.67;;;23.30;41.10;;;;;;4975081;28;20836;-54
2023/05/22 06:14:01;;;;;;;11.43;10.33;;;23.40;40.70;;;;;;4975045;28;20505;-56
2023/05/22 06:16:28;;;;;;;12.40;11.00;;;23.40;40.10;;;;;;4992641;28;20517;-52
2023/05/22 06:18:55;;;;;;;12.47;10.00;;;23.40;40.00;;;;;;4993103;28;20777;-54
2023/05/22 06:21:23;;;;;;;16.53;10.40;;;23.40;39.60;;;;;;4996549;28;20544;-57
2023/05/22 06:23:49;;;;;;;12.13;10.57;;;23.60;39.50;;;;;;4996402;28;20943;-57
2023/05/22 06:26:16;;;;;;;13.23;11.90;;;23.60;39.60;;;;;;4996383;28;20434;-54
2023/05/22 06:28:42;;;;;;;11.93;10.73;;;23.70;39.70;;;;;;4996426;28;20412;-56
2023/05/22 06:31:08;;;;;;;11.87;10.67;;;23.90;39.70;;;;;;4996304;28;20494;-55
2023/05/22 06:33:35;;;;;;;9.70;8.77;;;24.00;39.70;;;;;;4996250;28;20426;-54
2023/05/22 06:36:02;;;;;;;10.13;9.13;;;24.20;39.80;;;;;;4996285;28;20452;-57
2023/05/22 06:38:28;;;;;;;9.93;8.93;;;24.30;40.00;;;;;;4996217;28;20406;-54
2023/05/22 06:40:54;;;;;;;11.93;9.83;;;24.40;39.40;;;;;;4995896;28;20484;-54
2023/05/22 06:43:20;;;;;;;13.40;9.60;;;24.60;39.30;;;;;;4995940;28;20506;-56
2023/05/22 06:45:45;;;;;;;9.13;8.00;;;24.70;38.90;;;;;;4996036;28;20925;-53
2023/05/22 06:48:11;;;;;;;10.57;9.50;;;24.80;38.60;;;;;;4996076;28;20250;-57
2023/05/22 06:50:37;;;;;;;10.23;9.17;;;24.80;38.00;;;;;;4995952;28;20245;-53
2023/05/22 06:53:03;;;;;;;10.40;9.40;;;24.90;37.70;;;;;;4995991;28;20610;-54
2023/05/22 06:55:28;;;;;;;10.40;8.97;;;24.90;38.00;;;;;;4995878;28;20319;-56
2023/05/22 06:57:54;;;;;;;10.27;9.20;;;25.00;38.30;;;;;;4995640;28;20637;-53
2023/05/22 07:00:20;;;;;;;10.33;8.80;;;25.10;38.40;;;;;;4995744;28;20213;-55
2023/05/22 07:02:46;;;;;;;9.83;8.40;;;25.20;38.30;;;;;;4996025;28;20207;-56
2023/05/22 07:05:11;;;;;;;9.27;8.47;;;25.40;38.30;;;;;;4995558;28;20466;-54
2023/05/22 07:07:37;;;;;;;10.70;8.60;;;25.60;37.80;;;;;;4995592;28;20274;-57
2023/05/22 07:10:03;;;;;;;9.77;8.17;;;25.70;37.40;;;;;;4995351;28;20181;-53
2023/05/22 07:12:29;;;;;;;8.53;7.63;;;25.80;36.90;;;;;;4995413;28;20234;-54
2023/05/22 07:14:56;;;;;;;10.60;8.37;;;25.90;37.20;;;;;;4995658;28;20427;-56
2023/05/22 07:17:22;;;;;;;9.43;8.00;;;26.10;36.90;;;;;;4995486;28;20218;-55
2023/05/22 07:19:48;;;;;;;8.53;7.73;;;26.20;36.20;;;;;;4995445;28;20403;-55
2023/05/22 07:22:14;;;;;;;7.80;7.10;;;26.30;37.00;;;;;;4995681;28;20175;-55
2023/05/22 07:24:39;;;;;;;11.70;7.97;;;26.50;35.90;;;;;;4995179;28;20914;-55
2023/05/22 07:27:06;;;;;;;13.13;5.83;;;26.60;35.90;;;;;;4995100;28;20421;-55
2023/05/22 07:29:31;;;;;;;7.27;6.63;;;26.70;35.30;;;;;;4995012;28;20306;-54
2023/05/22 07:31:57;;;;;;;9.07;6.23;;;26.90;33.80;;;;;;4994279;28;20557;-56
2023/05/22 07:34:28;;;;;;;7.30;6.57;;;26.90;33.80;;;;;;4995062;28;20182;-55
2023/05/22 07:36:54;;;;;;;11.63;5.87;;;27.00;34.20;;;;;;4978626;28;20160;-54
2023/05/22 07:39:20;;;;;;;6.70;6.10;;;27.10;35.40;;;;;;4977357;28;20425;-56
2023/05/22 07:41:52;;;;;;;7.50;6.63;;;27.20;34.00;;;;;;4995125;28;20179;-54
2023/05/22 07:44:18;;;;;;;6.10;5.60;;;27.20;33.30;;;;;;4994921;28;20812;-55
2023/05/22 07:46:43;;;;;;;8.87;7.30;;;27.30;33.80;;;;;;4994944;28;20441;-57
2023/05/22 07:49:09;;;;;;;6.77;6.07;;;27.40;34.70;;;;;;4994743;28;20241;-54
2023/05/22 07:51:35;;;;;;;8.90;6.10;;;27.60;34.80;;;;;;4994704;28;20265;-54
2023/05/22 07:54:01;;;;;;;5.60;5.10;;;27.70;33.90;;;;;;4994722;28;20461;-57
2023/05/22 07:56:27;;;;;;;6.10;5.60;;;27.90;32.60;;;;;;4994993;28;20422;-54
2023/05/22 07:58:54;;;;;;;6.27;5.77;;;28.10;33.70;;;;;;4977203;28;20481;-57
2023/05/22 08:01:20;;;;;;;8.57;5.13;;;28.20;33.10;;;;;;4994516;28;20191;-54
2023/05/22 08:03:45;;;;;;;7.43;5.73;;;28.30;32.10;;;;;;4994885;28;20465;-57
2023/05/22 08:06:12;;;;;;;11.50;5.80;;;28.40;32.20;;;;;;4994522;28;20975;-57
2023/05/22 08:08:37;;;;;;;6.00;5.10;;;28.40;32.30;;;;;;4994449;28;20180;-56
2023/05/22 08:11:03;;;;;;;6.43;5.70;;;28.50;31.70;;;;;;4994170;28;20557;-59
2023/05/22 08:13:29;;;;;;;5.80;5.00;;;28.60;32.00;;;;;;4994691;28;20233;-56
2023/05/22 08:15:55;;;;;;;5.07;4.63;;;28.80;31.30;;;;;;4994569;28;20191;-53
2023/05/22 08:18:21;;;;;;;5.87;5.27;;;28.90;29.60;;;;;;4994350;28;20410;-57
2023/05/22 08:20:47;;;;;;;6.23;5.67;;;29.00;29.30;;;;;;4994011;28;20179;-54
2023/05/22 08:23:13;;;;;;;5.03;4.53;;;29.00;29.80;;;;;;4994210;28;20406;-54
2023/05/22 08:25:38;;;;;;;4.60;4.10;;;29.10;29.40;;;;;;4994350;28;20199;-56
2023/05/22 08:28:05;;;;;;;7.50;4.20;;;29.20;27.50;;;;;;4994298;28;21061;-56
2023/05/22 08:30:30;;;;;;;6.70;5.10;;;29.20;28.50;;;;;;4993967;28;20206;-55
2023/05/22 08:32:56;;;;;;;6.30;5.10;;;29.30;28.70;;;;;;4994177;28;20403;-57
2023/05/22 08:35:22;;;;;;;5.77;4.73;;;29.40;29.90;;;;;;4993968;28;20202;-57
2023/05/22 08:37:48;;;;;;;6.17;5.57;;;29.60;29.00;;;;;;4993905;28;20175;-55
2023/05/22 08:40:14;;;;;;;5.63;4.27;;;29.70;26.70;;;;;;4993857;28;20175;-54
2023/05/22 08:42:40;;;;;;;4.87;4.47;;;29.80;27.10;;;;;;4992651;28;20222;-56
2023/05/22 08:45:06;;;;;;;5.43;4.93;;;29.90;25.60;;;;;;4993767;28;20426;-55
2023/05/22 08:47:37;;;;;;;5.70;4.97;;;30.00;27.40;;;;;;4993747;28;20446;-57
2023/05/22 08:50:03;;;;;;;5.70;4.80;;;30.00;27.20;;;;;;4993578;28;20796;-57
2023/05/22 08:52:50;;;;;;;4.90;4.30;;;30.00;27.90;;;;;;4993579;28;20430;-54
2023/05/22 08:55:18;;;;;;;8.53;4.77;;;30.00;26.90;;;;;;4993699;28;20430;-56
2023/05/22 08:57:45;;;;;;;5.17;4.27;;;29.90;27.90;;;;;;4993547;28;20994;-54
2023/05/22 09:00:11;;;;;;;5.50;4.70;;;30.00;29.10;;;;;;4993361;28;20900;-57
2023/05/22 09:02:39;;;;;;;6.10;5.23;;;30.10;28.10;;;;;;4993517;28;20402;-54
2023/05/22 09:05:08;;;;;;;6.10;5.00;;;30.20;28.90;;;;;;4993192;28;20506;-56
2023/05/22 09:07:36;;;;;;;8.23;5.37;;;30.40;28.00;;;;;;4993421;28;20415;-57
2023/05/22 09:10:04;;;;;;;7.10;5.57;;;30.50;26.90;;;;;;4993257;28;20980;-54
2023/05/22 09:12:31;;;;;;;5.83;5.30;;;30.50;27.30;;;;;;4991737;28;20951;-57
2023/05/22 09:15:02;;;;;;;6.10;4.60;;;30.80;28.10;;;;;;4993344;28;20439;-55
2023/05/22 09:17:27;;;;;;;5.70;5.20;;;30.90;26.00;;;;;;4993897;28;20428;-55
2023/05/22 09:19:53;;;;;;;6.10;4.50;;;30.90;24.70;;;;;;4993618;28;20876;-57
2023/05/22 09:22:19;;;;;;;9.77;6.03;;;30.90;25.60;;;;;;4993968;28;20179;-57
2023/05/22 09:24:46;;;;;;;7.07;6.30;;;30.90;25.70;;;;;;4995021;28;20195;-54
2023/05/22 09:27:11;;;;;;;7.70;6.90;;;31.00;27.40;;;;;;4994295;28;20167;-55
2023/05/22 09:30:07;;;;;;;6.93;6.37;;;31.10;27.90;;;;;;4993254;28;20901;-57
2023/05/22 09:32:33;;;;;;;8.03;6.17;;;31.30;27.60;;;;;;4973121;28;20223;-55
2023/05/22 09:35:03;;;;;;;6.33;5.73;;;31.40;28.00;;;;;;4994156;28;20524;-56
2023/05/22 09:37:33;;;;;;;10.13;6.00;;;31.50;28.90;;;;;;4993664;28;20222;-54
2023/05/22 09:40:06;;;;;;;5.80;5.20;;;31.50;28.10;;;;;;4992567;28;20865;-58
2023/05/22 09:42:36;;;;;;;6.53;5.93;;;31.60;27.50;;;;;;4993020;28;20473;-55
2023/05/22 09:45:04;;;;;;;7.20;6.60;;;31.60;26.60;;;;;;4992967;28;20924;-55
2023/05/22 09:47:29;;;;;;;5.50;4.53;;;31.60;27.10;;;;;;4993718;28;20541;-58
2023/05/22 09:49:57;;;;;;;5.60;5.10;;;31.60;27.40;;;;;;4993669;28;20477;-55
2023/05/22 09:52:23;;;;;;;7.33;5.33;;;31.70;27.50;;;;;;4992820;28;20303;-57
2023/05/22 09:54:55;;;;;;;5.90;5.40;;;31.80;26.90;;;;;;4993227;28;20569;-56
2023/05/22 09:57:25;;;;;;;8.03;6.70;;;31.80;27.60;;;;;;4993688;28;20637;-56
2023/05/22 09:59:53;;;;;;;7.60;5.77;;;31.90;26.70;;;;;;4976467;28;20398;-58
2023/05/22 10:02:24;;;;;;;5.20;4.70;;;32.00;26.40;;;;;;4992929;28;21184;-56
2023/05/22 10:04:50;;;;;;;6.17;5.40;;;31.90;25.00;;;;;;4992894;28;20544;-56
2023/05/22 10:07:25;;;;;;;5.73;5.13;;;31.70;25.60;;;;;;4992033;28;20920;-56
2023/05/22 10:10:02;;;;;;;5.30;4.80;;;31.50;25.00;;;;;;4992681;28;20461;-56
2023/05/22 10:12:32;;;;;;;7.33;5.40;;;31.40;25.90;;;;;;4992621;28;20780;-57
2023/05/22 10:14:59;;;;;;;6.47;5.70;;;31.20;25.60;;;;;;4992925;28;20788;-57
2023/05/22 10:17:25;;;;;;;6.17;4.30;;;31.10;26.00;;;;;;4992956;28;20434;-55
2023/05/22 10:19:54;;;;;;;7.90;4.90;;;31.00;26.80;;;;;;4992504;28;20486;-58
2023/05/22 10:22:21;;;;;;;5.70;5.20;;;30.90;25.70;;;;;;4993356;28;20405;-55
2023/05/22 10:24:47;;;;;;;5.03;4.60;;;30.90;26.40;;;;;;4992646;28;20433;-56
2023/05/22 10:27:13;;;;;;;5.30;4.80;;;30.80;25.40;;;;;;4992880;28;20804;-56
2023/05/22 10:29:49;;;;;;;6.37;5.77;;;30.70;25.80;;;;;;4985106;28;20459;-58
2023/05/22 10:32:37;;;;;;;7.67;5.17;;;30.70;24.90;;;;;;4972992;28;20211;-55
2023/05/22 10:35:27;;;;;;;5.90;5.30;;;30.70;25.60;;;;;;4972825;28;20442;-57
2023/05/22 10:37:57;;;;;;;6.20;4.00;;;30.70;25.70;;;;;;4980429;28;20946;-57
2023/05/22 10:40:27;;;;;;;6.20;5.33;;;30.80;24.70;;;;;;4992065;28;20456;-56
2023/05/22 10:43:00;;;;;;;4.80;4.40;;;30.70;24.70;;;;;;4992287;28;20817;-56
2023/05/22 10:45:27;;;;;;;4.70;4.30;;;30.70;24.00;;;;;;4992260;28;20428;-59
2023/05/22 10:48:07;;;;;;;6.30;4.33;;;30.50;23.80;;;;;;4991749;28;20442;-55
2023/05/22 10:50:37;;;;;;;8.63;5.50;;;30.50;24.20;;;;;;4991696;28;20442;-58
2023/05/22 10:53:26;;;;;;;4.70;4.30;;;30.40;24.30;;;;;;4992005;28;20485;-54
2023/05/22 10:55:55;;;;;;;4.60;4.20;;;30.50;24.40;;;;;;4992291;28;20432;-58
2023/05/22 10:58:37;;;;;;;4.80;4.30;;;30.50;23.90;;;;;;4992140;28;20505;-56
2023/05/22 11:01:17;;;;;;;6.23;5.07;;;30.50;24.80;;;;;;4992508;28;20395;-58
2023/05/22 11:04:11;;;;;;;4.67;4.20;;;30.70;24.80;;;;;;4993290;28;20399;-56
2023/05/22 11:06:44;;;;;;;5.57;4.40;;;31.00;24.70;;;;;;4994491;28;20469;-58
2023/05/22 11:09:29;;;;;;;6.20;3.83;;;31.30;25.30;;;;;;4995980;28;20791;-56
2023/05/22 11:12:24;;;;;;;5.17;4.10;;;31.60;23.60;;;;;;4995523;28;20500;-58
2023/05/22 11:15:08;;;;;;;6.53;3.83;;;31.70;23.90;;;;;;4995693;28;20430;-55
2023/05/22 11:17:50;;;;;;;6.17;4.47;;;31.90;21.80;;;;;;4995581;28;20394;-58
2023/05/22 11:20:21;;;;;;;4.80;4.30;;;31.90;21.80;;;;;;4995364;28;20749;-59
2023/05/22 11:23:04;;;;;;;7.10;4.50;;;32.00;22.50;;;;;;4995949;28;20407;-53
2023/05/22 11:25:32;;;;;;;17.43;10.90;;;32.10;21.70;;;;;;4995311;28;20426;-57
2023/05/22 11:28:01;;;;;;;14.27;11.90;;;32.10;23.10;;;;;;4995044;28;20449;-54
2023/05/22 11:30:29;;;;;;;11.60;8.60;;;32.20;23.10;;;;;;4994662;28;20454;-54
2023/05/22 11:32:57;;;;;;;19.63;16.87;;;32.20;23.50;;;;;;4994956;28;20414;-57
2023/05/22 11:35:23;;;;;;;7.27;6.20;;;32.40;22.80;;;;;;4994903;28;20430;-54
2023/05/22 11:37:50;;;;;;;9.37;5.10;;;32.40;22.50;;;;;;4995193;28;20836;-53
2023/05/22 11:40:19;;;;;;;4.97;4.47;;;32.40;21.30;;;;;;4994622;28;20402;-56
2023/05/22 11:42:46;;;;;;;6.23;5.60;;;32.30;21.60;;;;;;4994864;28;20411;-57
2023/05/22 11:45:12;;;;;;;5.10;4.60;;;32.40;22.70;;;;;;4994832;28;20426;-55
2023/05/22 11:47:38;;;;;;;7.97;4.40;;;32.40;22.60;;;;;;4995016;28;20414;-55
2023/05/22 11:50:05;;;;;;;6.13;5.10;;;32.50;22.20;;;;;;4994487;28;20911;-57
2023/05/22 11:52:33;;;;;;;3.87;3.37;;;32.60;23.40;;;;;;4994451;28;20413;-54
2023/05/22 11:54:59;;;;;;;4.40;3.90;;;32.60;21.40;;;;;;4994685;28;20479;-54
2023/05/22 11:57:25;;;;;;;7.40;4.77;;;32.40;21.50;;;;;;4994784;28;20403;-57
2023/05/22 11:59:51;;;;;;;9.77;4.13;;;32.40;22.70;;;;;;4994189;28;20843;-55
2023/05/22 12:02:18;;;;;;;5.57;4.60;;;32.30;22.90;;;;;;4994725;28;20473;-54
2023/05/22 12:04:45;;;;;;;4.97;4.40;;;32.40;24.10;;;;;;4994373;28;20446;-56
2023/05/22 12:07:11;;;;;;;6.67;4.17;;;32.50;23.40;;;;;;4994453;28;20470;-57
2023/05/22 12:09:42;;;;;;;8.10;4.10;;;32.60;23.10;;;;;;4994215;28;20432;-54
2023/05/22 12:12:10;;;;;;;6.83;4.50;;;32.70;23.80;;;;;;4994346;28;20465;-53
2023/05/22 12:14:37;;;;;;;6.23;4.30;;;32.90;23.70;;;;;;4993819;28;20439;-57
2023/05/22 12:17:03;;;;;;;7.53;4.33;;;33.00;24.10;;;;;;4994026;28;20457;-54
2023/05/22 12:19:29;;;;;;;4.10;3.70;;;33.00;22.50;;;;;;4993929;28;20912;-57
2023/05/22 12:21:55;;;;;;;4.77;4.30;;;33.10;23.30;;;;;;4994003;28;20419;-55
2023/05/22 12:24:22;;;;;;;7.33;3.97;;;33.00;22.70;;;;;;4994029;28;20429;-54
2023/05/22 12:26:55;;;;;;;4.90;4.50;;;32.90;22.20;;;;;;4993944;28;20411;-57
2023/05/22 12:29:22;;;;;;;5.50;4.27;;;32.90;23.60;;;;;;4993465;28;20410;-54
2023/05/22 12:31:48;;;;;;;9.03;5.20;;;32.90;23.90;;;;;;4993856;28;20461;-54
2023/05/22 12:34:16;;;;;;;6.63;4.70;;;32.90;23.20;;;;;;4993776;28;20406;-57
2023/05/22 12:36:43;;;;;;;5.57;4.83;;;32.90;22.70;;;;;;4993656;28;20178;-55
2023/05/22 12:39:18;;;;;;;9.03;4.50;;;33.00;23.10;;;;;;4993602;28;20433;-55
2023/05/22 12:41:45;;;;;;;4.73;4.23;;;33.00;23.50;;;;;;4993597;28;20406;-55
2023/05/22 12:44:11;;;;;;;4.60;4.20;;;33.00;23.20;;;;;;4993991;28;20418;-57
2023/05/22 12:46:37;;;;;;;5.63;5.03;;;33.00;22.80;;;;;;4993376;28;20920;-54